createdAt,value
2023-04-18T00:00:12.106Z,1.33
2023-04-18T00:01:12.114Z,1.35
2023-04-18T00:02:12.226Z,1.31
2023-04-18T00:03:12.230Z,1.28
2023-04-18T00:04:12.343Z,1.30
2023-04-18T00:05:12.137Z,1.32
2023-04-18T00:06:12.129Z,1.35
2023-04-18T00:07:12.114Z,1.30
2023-04-18T00:08:12.159Z,1.35
2023-04-18T00:09:12.241Z,1.30
2023-04-18T00:10:12.206Z,1.30
2023-04-18T00:11:12.215Z,1.31
2023-04-18T00:12:12.228Z,1.31
2023-04-18T00:13:12.266Z,1.28
2023-04-18T00:14:12.525Z,1.27
2023-04-18T00:15:12.390Z,1.31
2023-04-18T00:16:12.477Z,1.31
2023-04-18T00:17:12.535Z,1.33
2023-04-18T00:18:12.537Z,1.29
2023-04-18T00:19:12.614Z,1.26
2023-04-18T00:20:12.800Z,1.32
2023-04-18T00:21:12.722Z,1.33
2023-04-18T00:22:12.767Z,1.28
2023-04-18T00:23:13.412Z,1.29
2023-04-18T00:24:13.141Z,1.30
2023-04-18T00:25:12.958Z,1.29
2023-04-18T00:26:12.997Z,1.30
2023-04-18T00:27:13.072Z,1.27
2023-04-18T00:28:13.128Z,1.28
2023-04-18T00:29:13.171Z,1.24
2023-04-18T00:30:13.237Z,1.31
2023-04-18T00:31:13.350Z,1.25
2023-04-18T00:32:13.351Z,1.25
2023-04-18T00:33:13.352Z,1.24
2023-04-18T00:34:13.517Z,1.27
2023-04-18T00:35:13.376Z,1.28
2023-04-18T00:36:13.372Z,1.29
2023-04-18T00:37:13.383Z,1.28
2023-04-18T00:38:13.403Z,1.27
2023-04-18T00:39:13.373Z,1.29
2023-04-18T00:40:13.375Z,1.29
2023-04-18T00:41:13.396Z,1.30
2023-04-18T00:42:13.455Z,1.30
2023-04-18T00:43:13.486Z,1.26
2023-04-18T00:44:13.874Z,1.29
2023-04-18T00:45:13.618Z,1.29
2023-04-18T00:46:13.683Z,1.27
2023-04-18T00:47:13.644Z,1.28
2023-04-18T00:48:13.642Z,1.32
2023-04-18T00:49:13.692Z,1.33
2023-04-18T00:50:13.766Z,1.31
2023-04-18T00:51:13.811Z,1.32
2023-04-18T00:52:13.858Z,1.34
2023-04-18T00:53:13.927Z,1.30
2023-04-18T00:54:14.169Z,1.26
2023-04-18T00:55:13.997Z,1.29
2023-04-18T00:56:14.023Z,1.26
2023-04-18T00:57:14.023Z,1.31
2023-04-18T00:58:14.035Z,1.29
2023-04-18T00:59:14.038Z,1.33
2023-04-18T01:00:14.055Z,1.30
2023-04-18T01:01:14.146Z,1.32
2023-04-18T01:02:14.091Z,1.32
2023-04-18T01:03:14.174Z,1.33
2023-04-18T01:04:14.579Z,1.33
2023-04-18T01:05:14.144Z,1.30
2023-04-18T01:06:14.173Z,1.29
2023-04-18T01:07:14.193Z,1.28
2023-04-18T01:08:14.204Z,1.28
2023-04-18T01:09:14.259Z,1.32
2023-04-18T01:10:14.318Z,1.30
2023-04-18T01:11:14.362Z,1.31
2023-04-18T01:12:14.418Z,1.33
2023-04-18T01:13:14.476Z,1.32
2023-04-18T01:14:14.688Z,1.32
2023-04-18T01:15:14.577Z,1.33
2023-04-18T01:16:14.668Z,1.32
2023-04-18T01:17:14.690Z,1.33
2023-04-18T01:18:14.752Z,1.35
2023-04-18T01:19:14.776Z,1.38
2023-04-18T01:20:14.801Z,1.35
2023-04-18T01:21:14.803Z,1.32
2023-04-18T01:22:14.852Z,1.28
2023-04-18T01:23:14.884Z,1.30
2023-04-18T01:24:15.166Z,1.26
2023-04-18T01:25:15.042Z,1.30
2023-04-18T01:26:15.074Z,1.28
2023-04-18T01:27:15.148Z,1.29
2023-04-18T01:28:15.278Z,1.28
2023-04-18T01:29:15.205Z,1.30
2023-04-18T01:30:15.225Z,1.30
2023-04-18T01:31:15.362Z,1.26
2023-04-18T01:32:15.282Z,1.29
2023-04-18T01:33:15.301Z,1.30
2023-04-18T01:34:15.534Z,1.28
2023-04-18T01:35:15.296Z,1.30
2023-04-18T01:36:15.301Z,1.26
2023-04-18T01:37:15.324Z,1.30
2023-04-18T01:38:15.303Z,1.29
2023-04-18T01:39:15.371Z,1.29
2023-04-18T01:40:15.411Z,1.29
2023-04-18T01:41:15.465Z,1.28
2023-04-18T01:42:15.530Z,1.31
2023-04-18T01:43:15.541Z,1.30
2023-04-18T01:44:15.870Z,1.26
2023-04-18T01:45:15.604Z,1.24
2023-04-18T01:46:15.676Z,1.27
2023-04-18T01:47:15.694Z,1.29
2023-04-18T01:48:15.768Z,1.25
2023-04-18T01:49:15.828Z,1.29
2023-04-18T01:50:15.872Z,1.30
2023-04-18T01:51:15.935Z,1.26
2023-04-18T01:52:15.926Z,1.24
2023-04-18T01:53:15.950Z,1.25
2023-04-18T01:54:16.244Z,1.27
2023-04-18T01:55:15.951Z,1.29
2023-04-18T01:56:15.966Z,1.28
2023-04-18T01:57:15.977Z,1.23
2023-04-18T01:58:15.989Z,1.23
2023-04-18T01:59:15.995Z,1.25
2023-04-18T02:00:16.015Z,1.28
2023-04-18T02:01:16.057Z,1.26
2023-04-18T02:02:16.050Z,1.27
2023-04-18T02:03:16.112Z,1.23
2023-04-18T02:04:16.283Z,1.27
2023-04-18T02:05:16.043Z,1.28
2023-04-18T02:06:16.055Z,1.27
2023-04-18T02:07:16.058Z,1.23
2023-04-18T02:08:16.059Z,1.23
2023-04-18T02:09:16.084Z,1.24
2023-04-18T02:10:16.070Z,1.24
2023-04-18T02:11:16.084Z,1.23
2023-04-18T02:12:16.153Z,1.25
2023-04-18T02:13:16.236Z,1.26
2023-04-18T02:14:16.316Z,1.24
2023-04-18T02:15:16.303Z,1.23
2023-04-18T02:16:16.403Z,1.22
2023-04-18T02:17:16.334Z,1.21
2023-04-18T02:18:16.352Z,1.24
2023-04-18T02:19:16.367Z,1.22
2023-04-18T02:20:16.353Z,1.20
2023-04-18T02:21:16.376Z,1.20
2023-04-18T02:22:16.367Z,1.22
2023-04-18T02:23:16.396Z,1.21
2023-04-18T02:24:16.403Z,1.20
2023-04-18T02:25:16.420Z,1.21
2023-04-18T02:26:16.404Z,1.18
2023-04-18T02:27:16.423Z,1.19
2023-04-18T02:28:16.432Z,1.20
2023-04-18T02:29:16.459Z,1.22
2023-04-18T02:30:16.490Z,1.19
2023-04-18T02:31:16.502Z,1.18
2023-04-18T02:32:16.478Z,1.19
2023-04-18T02:33:16.503Z,1.18
2023-04-18T02:34:16.512Z,1.17
2023-04-18T02:35:16.539Z,1.23
2023-04-18T02:36:16.579Z,1.21
2023-04-18T02:37:16.646Z,1.19
2023-04-18T02:38:16.682Z,1.22
2023-04-18T02:39:16.739Z,1.18
2023-04-18T02:40:16.814Z,1.17
2023-04-18T02:41:16.853Z,1.23
2023-04-18T02:42:16.918Z,1.20
2023-04-18T02:43:16.984Z,1.19
2023-04-18T02:44:17.067Z,1.21
2023-04-18T02:45:17.078Z,1.23
2023-04-18T02:46:17.156Z,1.19
2023-04-18T02:47:17.199Z,1.23
2023-04-18T02:48:17.332Z,1.23
2023-04-18T02:49:17.354Z,1.18
2023-04-18T02:50:17.393Z,1.19
2023-04-18T02:51:17.457Z,1.18
2023-04-18T02:52:17.509Z,1.23
2023-04-18T02:53:17.579Z,1.21
2023-04-18T02:54:17.646Z,1.21
2023-04-18T02:55:17.697Z,1.20
2023-04-18T02:56:17.765Z,1.22
2023-04-18T02:57:17.822Z,1.21
2023-04-18T02:58:17.871Z,1.20
2023-04-18T02:59:17.915Z,1.23
2023-04-18T03:00:17.946Z,1.22
2023-04-18T03:01:18.060Z,1.22
2023-04-18T03:02:18.068Z,1.23
2023-04-18T03:03:18.144Z,1.22
2023-04-18T03:04:18.211Z,1.23
2023-04-18T03:05:18.237Z,1.23
2023-04-18T03:06:18.292Z,1.23
2023-04-18T03:07:18.361Z,1.19
2023-04-18T03:08:18.419Z,1.25
2023-04-18T03:09:18.460Z,1.23
2023-04-18T03:10:18.534Z,1.27
2023-04-18T03:11:18.581Z,1.22
2023-04-18T03:12:18.642Z,1.25
2023-04-18T03:13:18.717Z,1.26
2023-04-18T03:14:18.767Z,1.25
2023-04-18T03:15:18.822Z,1.21
2023-04-18T03:16:18.980Z,1.28
2023-04-18T03:17:18.943Z,1.25
2023-04-18T03:18:18.997Z,1.24
2023-04-18T03:19:19.046Z,1.24
2023-04-18T03:20:19.126Z,1.24
2023-04-18T03:21:19.197Z,1.22
2023-04-18T03:22:19.206Z,1.24
2023-04-18T03:23:19.279Z,1.23
2023-04-18T03:24:19.325Z,1.21
2023-04-18T03:25:19.384Z,1.24
2023-04-18T03:26:19.447Z,1.21
2023-04-18T03:27:19.490Z,1.21
2023-04-18T03:28:19.571Z,1.20
2023-04-18T03:29:19.596Z,1.23
2023-04-18T03:30:19.676Z,1.20
2023-04-18T03:31:19.751Z,1.18
2023-04-18T03:32:19.773Z,1.19
2023-04-18T03:33:19.850Z,1.22
2023-04-18T03:34:19.879Z,1.21
2023-04-18T03:35:19.951Z,1.17
2023-04-18T03:36:20.006Z,1.15
2023-04-18T03:37:20.057Z,1.17
2023-04-18T03:38:20.144Z,1.15
2023-04-18T03:39:20.104Z,1.16
2023-04-18T03:40:20.126Z,1.20
2023-04-18T03:41:20.129Z,1.18
2023-04-18T03:42:20.179Z,1.21
2023-04-18T03:43:20.213Z,1.20
2023-04-18T03:44:20.264Z,1.20
2023-04-18T03:45:20.347Z,1.23
2023-04-18T03:46:20.418Z,1.18
2023-04-18T03:47:20.495Z,1.17
2023-04-18T03:48:20.524Z,1.16
2023-04-18T03:49:20.579Z,1.19
2023-04-18T03:50:20.648Z,1.17
2023-04-18T03:51:20.706Z,1.20
2023-04-18T03:52:20.764Z,1.16
2023-04-18T03:53:20.819Z,1.20
2023-04-18T03:54:20.873Z,1.17
2023-04-18T03:55:20.937Z,1.18
2023-04-18T03:56:20.995Z,1.21
2023-04-18T03:57:21.074Z,1.18
2023-04-18T03:58:23.155Z,1.17
2023-04-18T03:59:21.187Z,1.15
2023-04-18T04:00:21.242Z,1.16
2023-04-18T04:01:21.319Z,1.14
2023-04-18T04:02:21.566Z,1.20
2023-04-18T04:03:21.552Z,1.19
2023-04-18T04:04:21.504Z,1.17
2023-04-18T04:05:21.445Z,1.15
2023-04-18T04:06:21.460Z,1.16
2023-04-18T04:07:21.481Z,1.16
2023-04-18T04:08:21.469Z,1.17
2023-04-18T04:09:21.530Z,1.15
2023-04-18T04:10:21.632Z,1.17
2023-04-18T04:11:21.649Z,1.15
2023-04-18T04:12:21.697Z,1.16
2023-04-18T04:13:21.749Z,1.17
2023-04-18T04:14:21.817Z,1.15
2023-04-18T04:15:21.859Z,1.15
2023-04-18T04:16:21.974Z,1.15
2023-04-18T04:17:22.081Z,1.19
2023-04-18T04:18:22.056Z,1.16
2023-04-18T04:19:22.119Z,1.18
2023-04-18T04:20:22.175Z,1.15
2023-04-18T04:21:22.178Z,1.16
2023-04-18T04:22:22.191Z,1.14
2023-04-18T04:23:22.213Z,1.17
2023-04-18T04:24:22.212Z,1.16
2023-04-18T04:25:22.244Z,1.13
2023-04-18T04:26:22.283Z,1.16
2023-04-18T04:27:22.331Z,1.18
2023-04-18T04:28:22.338Z,1.15
2023-04-18T04:29:22.361Z,1.14
2023-04-18T04:30:22.375Z,1.13
2023-04-18T04:31:22.446Z,1.14
2023-04-18T04:32:22.406Z,1.14
2023-04-18T04:33:22.390Z,1.14
2023-04-18T04:34:22.392Z,1.15
2023-04-18T04:35:22.419Z,1.16
2023-04-18T04:36:22.408Z,1.11
2023-04-18T04:37:22.446Z,1.16
2023-04-18T04:38:22.439Z,1.12
2023-04-18T04:39:22.494Z,1.14
2023-04-18T04:40:22.546Z,1.13
2023-04-18T04:41:22.616Z,1.13
2023-04-18T04:42:22.646Z,1.12
2023-04-18T04:43:22.696Z,1.14
2023-04-18T04:44:22.783Z,1.10
2023-04-18T04:45:22.763Z,1.13
2023-04-18T04:46:22.888Z,1.10
2023-04-18T04:47:22.829Z,1.12
2023-04-18T04:48:22.826Z,1.13
2023-04-18T04:49:22.827Z,1.13
2023-04-18T04:50:22.837Z,1.15
2023-04-18T04:51:22.844Z,1.16
2023-04-18T04:52:22.894Z,1.14
2023-04-18T04:53:22.956Z,1.14
2023-04-18T04:54:23.038Z,1.15
2023-04-18T04:55:23.082Z,1.15
2023-04-18T04:56:23.160Z,1.18
2023-04-18T04:57:23.221Z,1.22
2023-04-18T04:58:23.224Z,1.16
2023-04-18T04:59:23.256Z,1.16
2023-04-18T05:00:23.282Z,1.20
2023-04-18T05:01:23.332Z,1.19
2023-04-18T05:02:23.461Z,1.20
2023-04-18T05:03:23.521Z,1.20
2023-04-18T05:04:23.468Z,1.21
2023-04-18T05:05:23.470Z,1.21
2023-04-18T05:06:23.531Z,1.20
2023-04-18T05:07:23.595Z,1.23
2023-04-18T05:08:23.654Z,1.24
2023-04-18T05:09:23.795Z,1.22
2023-04-18T05:10:23.763Z,1.26
2023-04-18T05:11:23.818Z,1.26
2023-04-18T05:12:23.879Z,1.25
2023-04-18T05:13:23.989Z,1.22
2023-04-18T05:14:23.973Z,1.24
2023-04-18T05:15:23.966Z,1.26
2023-04-18T05:16:24.065Z,1.26
2023-04-18T05:17:23.993Z,1.24
2023-04-18T05:18:24.030Z,1.25
2023-04-18T05:19:24.105Z,1.24
2023-04-18T05:20:24.135Z,1.23
2023-04-18T05:21:24.197Z,1.22
2023-04-18T05:22:24.242Z,1.23
2023-04-18T05:23:24.303Z,1.23
2023-04-18T05:24:24.378Z,1.23
2023-04-18T05:25:24.476Z,1.21
2023-04-18T05:26:24.512Z,1.27
2023-04-18T05:27:24.562Z,1.26
2023-04-18T05:28:24.630Z,1.31
2023-04-18T05:29:24.706Z,1.40
2023-04-18T05:30:24.743Z,1.44
2023-04-18T05:31:24.866Z,1.61
2023-04-18T05:32:24.903Z,1.57
2023-04-18T05:33:24.924Z,1.67
2023-04-18T05:34:24.928Z,1.72
2023-04-18T05:35:24.910Z,2.15
2023-04-18T05:36:24.963Z,2.48
2023-04-18T05:37:25.037Z,2.81
2023-04-18T05:38:25.097Z,3.19
2023-04-18T05:39:25.089Z,3.50
2023-04-18T05:40:25.139Z,3.68
2023-04-18T05:41:25.175Z,4.06
2023-04-18T05:42:25.190Z,4.36
2023-04-18T05:43:25.365Z,4.55
2023-04-18T05:44:25.322Z,4.72
2023-04-18T05:45:25.278Z,4.83
2023-04-18T05:46:25.372Z,4.99
2023-04-18T05:47:25.376Z,5.12
2023-04-18T05:48:25.433Z,5.28
2023-04-18T05:49:25.443Z,5.30
2023-04-18T05:50:25.426Z,5.43
2023-04-18T05:51:25.433Z,5.42
2023-04-18T05:52:25.444Z,5.46
2023-04-18T05:53:25.451Z,5.53
2023-04-18T05:54:25.482Z,5.71
2023-04-18T05:55:25.867Z,5.76
2023-04-18T05:56:25.472Z,5.94
2023-04-18T05:57:25.447Z,6.10
2023-04-18T05:58:25.490Z,6.20
2023-04-18T05:59:25.539Z,6.23
2023-04-18T06:00:25.736Z,6.17
2023-04-18T06:01:25.609Z,6.38
2023-04-18T06:02:25.872Z,6.32
2023-04-18T06:03:26.074Z,5.10
2023-04-18T06:04:25.853Z,4.65
2023-04-18T06:05:25.884Z,4.44
2023-04-18T06:06:25.815Z,4.75
2023-04-18T06:07:25.858Z,4.51
2023-04-18T06:08:25.884Z,4.84
2023-04-18T06:09:25.881Z,4.78
2023-04-18T06:10:25.928Z,4.38
2023-04-18T06:11:25.984Z,4.11
2023-04-18T06:12:26.019Z,4.00
2023-04-18T06:13:26.088Z,4.09
2023-04-18T06:14:26.159Z,3.83
2023-04-18T06:15:26.190Z,3.72
2023-04-18T06:16:26.330Z,3.66
2023-04-18T06:17:26.193Z,3.58
2023-04-18T06:18:26.172Z,3.67
2023-04-18T06:19:26.189Z,3.39
2023-04-18T06:20:26.179Z,3.67
2023-04-18T06:21:26.220Z,3.91
2023-04-18T06:22:26.230Z,4.09
2023-04-18T06:23:26.435Z,4.09
2023-04-18T06:24:26.236Z,4.12
2023-04-18T06:25:26.259Z,4.01
2023-04-18T06:26:26.242Z,3.78
2023-04-18T06:27:31.619Z,3.81
2023-04-18T06:28:27.251Z,3.82
2023-04-18T06:29:26.240Z,3.82
2023-04-18T06:30:26.237Z,3.82
2023-04-18T06:31:26.238Z,3.47
2023-04-18T06:32:26.305Z,3.21
2023-04-18T06:33:26.377Z,3.26
2023-04-18T06:34:26.200Z,3.76
2023-04-18T06:35:26.700Z,4.11
2023-04-18T06:36:26.179Z,4.22
2023-04-18T06:37:26.176Z,4.45
2023-04-18T06:38:26.168Z,4.78
2023-04-18T06:39:26.183Z,6.13
2023-04-18T06:40:26.891Z,8.01
2023-04-18T06:41:26.273Z,8.59
2023-04-18T06:42:26.271Z,10.61
2023-04-18T06:43:26.298Z,10.24
2023-04-18T06:44:26.370Z,10.31
2023-04-18T06:45:26.472Z,13.59
2023-04-18T06:46:26.477Z,16.71
2023-04-18T06:47:26.410Z,19.96
2023-04-18T06:48:27.304Z,22.75
2023-04-18T06:49:26.803Z,24.42
2023-04-18T06:50:26.482Z,22.77
2023-04-18T06:51:26.514Z,16.74
2023-04-18T06:52:26.510Z,14.95
2023-04-18T06:53:26.564Z,11.68
2023-04-18T06:54:26.625Z,9.62
2023-04-18T06:55:26.689Z,8.71
2023-04-18T06:56:26.722Z,8.18
2023-04-18T06:57:26.737Z,7.89
2023-04-18T06:58:26.893Z,7.62
2023-04-18T06:59:26.794Z,7.62
2023-04-18T07:00:26.815Z,7.07
2023-04-18T07:01:26.928Z,6.27
2023-04-18T07:02:26.988Z,5.97
2023-04-18T07:03:27.530Z,6.12
2023-04-18T07:04:27.081Z,7.00
2023-04-18T07:05:27.085Z,5.82
2023-04-18T07:06:27.135Z,6.26
2023-04-18T07:07:27.214Z,6.67
2023-04-18T07:08:27.231Z,6.20
2023-04-18T07:09:27.261Z,6.02
2023-04-18T07:10:27.305Z,6.24
2023-04-18T07:11:27.334Z,6.58
2023-04-18T07:12:27.358Z,7.33
2023-04-18T07:13:27.393Z,6.67
2023-04-18T07:14:27.484Z,6.61
2023-04-18T07:15:27.533Z,6.00
2023-04-18T07:16:27.596Z,5.77
2023-04-18T07:17:27.693Z,5.76
2023-04-18T07:18:37.605Z,5.52
2023-04-18T07:19:28.687Z,5.34
2023-04-18T07:20:27.713Z,5.02
2023-04-18T07:21:27.652Z,5.20
2023-04-18T07:22:27.698Z,6.56
2023-04-18T07:23:27.656Z,7.51
2023-04-18T07:24:27.653Z,6.32
2023-04-18T07:25:27.662Z,6.19
2023-04-18T07:26:27.660Z,6.28
2023-04-18T07:27:27.617Z,5.09
2023-04-18T07:28:27.650Z,4.83
2023-04-18T07:29:27.947Z,4.39
2023-04-18T07:30:27.950Z,4.25
2023-04-18T07:31:27.824Z,3.74
2023-04-18T07:32:27.816Z,3.90
2023-04-18T07:33:27.795Z,3.78
2023-04-18T07:34:27.920Z,3.50
2023-04-18T07:35:27.921Z,3.21
2023-04-18T07:36:27.869Z,2.77
2023-04-18T07:37:27.839Z,2.60
2023-04-18T07:38:27.871Z,2.25
2023-04-18T07:39:27.908Z,2.17
2023-04-18T07:40:28.416Z,2.01
2023-04-18T07:41:28.011Z,1.78
2023-04-18T07:42:28.062Z,1.76
2023-04-18T07:43:28.097Z,1.67
2023-04-18T07:44:28.423Z,1.52
2023-04-18T07:45:28.137Z,1.49
2023-04-18T07:46:28.235Z,1.33
2023-04-18T07:47:29.613Z,1.36
2023-04-18T07:48:28.254Z,1.37
2023-04-18T07:49:28.420Z,1.27
2023-04-18T07:50:28.272Z,1.36
2023-04-18T07:51:28.274Z,1.26
2023-04-18T07:52:28.337Z,1.21
2023-04-18T07:53:28.278Z,1.25
2023-04-18T07:54:28.257Z,1.24
2023-04-18T07:55:28.347Z,1.12
2023-04-18T07:56:28.322Z,1.07
2023-04-18T07:57:28.354Z,1.06
2023-04-18T07:58:28.473Z,0.88
2023-04-18T07:59:28.511Z,0.90
2023-04-18T08:00:28.503Z,0.93
2023-04-18T08:01:28.530Z,0.99
2023-04-18T08:02:28.734Z,0.97
2023-04-18T08:03:28.771Z,1.04
2023-04-18T08:04:30.114Z,0.95
2023-04-18T08:05:28.619Z,1.02
2023-04-18T08:06:28.576Z,1.00
2023-04-18T08:07:28.562Z,0.97
2023-04-18T08:08:28.567Z,0.88
2023-04-18T08:09:28.616Z,0.89
2023-04-18T08:10:28.555Z,0.85
2023-04-18T08:11:28.577Z,0.83
2023-04-18T08:12:28.624Z,0.81
2023-04-18T08:13:28.619Z,0.80
2023-04-18T08:14:28.952Z,0.75
2023-04-18T08:15:28.645Z,0.85
2023-04-18T08:16:28.722Z,0.80
2023-04-18T08:17:28.719Z,0.78
2023-04-18T08:18:28.705Z,0.81
2023-04-18T08:19:28.932Z,0.83
2023-04-18T08:20:28.852Z,0.68
2023-04-18T08:21:28.935Z,0.61
2023-04-18T08:22:28.882Z,0.97
2023-04-18T08:23:28.925Z,1.27
2023-04-18T08:24:28.951Z,1.46
2023-04-18T08:25:28.951Z,1.61
2023-04-18T08:26:28.973Z,1.78
2023-04-18T08:27:28.988Z,2.10
2023-04-18T08:28:29.032Z,2.23
2023-04-18T08:29:29.454Z,2.40
2023-04-18T08:30:29.122Z,2.47
2023-04-18T08:31:29.228Z,2.54
2023-04-18T08:32:29.268Z,2.64
2023-04-18T08:33:29.260Z,2.70
2023-04-18T08:34:29.337Z,2.61
2023-04-18T08:35:29.373Z,2.63
2023-04-18T08:36:29.438Z,2.68
2023-04-18T08:37:29.434Z,2.83
2023-04-18T08:38:29.476Z,2.83
2023-04-18T08:39:30.450Z,2.85
2023-04-18T08:40:32.639Z,2.95
2023-04-18T08:41:29.491Z,2.88
2023-04-18T08:42:29.520Z,2.85
2023-04-18T08:43:29.497Z,2.86
2023-04-18T08:44:29.459Z,2.87
2023-04-18T08:45:29.505Z,2.85
2023-04-18T08:46:29.470Z,2.69
2023-04-18T08:47:29.455Z,2.63
2023-04-18T08:48:29.486Z,2.73
2023-04-18T08:49:29.431Z,2.71
2023-04-18T08:50:29.473Z,2.68
2023-04-18T08:51:29.413Z,2.67
2023-04-18T08:52:29.426Z,2.71
2023-04-18T08:53:29.419Z,2.48
2023-04-18T08:54:29.408Z,2.53
2023-04-18T08:55:29.393Z,2.66
2023-04-18T08:56:29.468Z,2.72
2023-04-18T08:57:29.395Z,2.73
2023-04-18T08:58:29.360Z,3.32
2023-04-18T08:59:29.369Z,3.20
2023-04-18T09:00:29.356Z,2.95
2023-04-18T09:01:29.406Z,2.88
2023-04-18T09:02:29.397Z,2.78
2023-04-18T09:03:29.348Z,2.93
2023-04-18T09:04:29.368Z,2.82
2023-04-18T09:05:29.323Z,2.76
2023-04-18T09:06:29.446Z,2.83
2023-04-18T09:07:29.290Z,2.77
2023-04-18T09:08:29.287Z,2.63
2023-04-18T09:09:29.359Z,2.19
2023-04-18T09:10:29.263Z,1.66
2023-04-18T09:11:29.715Z,1.53
2023-04-18T09:12:29.380Z,2.52
2023-04-18T09:13:29.254Z,2.11
2023-04-18T09:14:29.264Z,1.55
2023-04-18T09:15:29.323Z,1.24
2023-04-18T09:16:29.474Z,1.12
2023-04-18T09:17:29.299Z,0.86
2023-04-18T09:18:29.231Z,1.08
2023-04-18T09:19:29.232Z,1.39
2023-04-18T09:20:29.204Z,1.35
2023-04-18T09:21:29.438Z,1.50
2023-04-18T09:22:29.203Z,1.53
2023-04-18T09:23:29.198Z,1.58
2023-04-18T09:24:29.196Z,1.62
2023-04-18T09:25:29.559Z,1.65
2023-04-18T09:26:29.170Z,1.37
2023-04-18T09:27:29.177Z,1.03
2023-04-18T09:28:29.154Z,1.26
2023-04-18T09:29:29.184Z,1.54
2023-04-18T09:30:29.474Z,1.25
2023-04-18T09:31:29.491Z,1.43
2023-04-18T09:32:29.390Z,1.37
2023-04-18T09:33:29.190Z,1.48
2023-04-18T09:34:29.134Z,1.49
2023-04-18T09:35:29.132Z,1.52
2023-04-18T09:36:29.486Z,1.46
2023-04-18T09:37:29.089Z,1.04
2023-04-18T09:38:29.108Z,0.62
2023-04-18T09:39:29.108Z,0.55
2023-04-18T09:40:29.092Z,0.56
2023-04-18T09:41:29.448Z,0.49
2023-04-18T09:42:29.211Z,0.53
2023-04-18T09:43:29.054Z,0.55
2023-04-18T09:44:29.070Z,0.59
2023-04-18T09:45:29.026Z,0.64
2023-04-18T09:46:29.065Z,0.60
2023-04-18T09:47:29.038Z,0.56
2023-04-18T09:48:29.014Z,0.34
2023-04-18T09:49:29.029Z,0.34
2023-04-18T09:50:29.028Z,0.35
2023-04-18T09:51:29.453Z,0.34
2023-04-18T09:52:29.032Z,0.36
2023-04-18T09:53:28.970Z,0.48
2023-04-18T09:54:28.962Z,0.60
2023-04-18T09:55:28.981Z,0.78
2023-04-18T09:56:28.992Z,0.75
2023-04-18T09:57:29.009Z,0.89
2023-04-18T09:58:29.005Z,0.89
2023-04-18T09:59:29.058Z,1.01
2023-04-18T10:00:29.522Z,0.94
2023-04-18T10:01:29.110Z,1.00
2023-04-18T10:02:29.161Z,1.12
2023-04-18T10:03:29.142Z,0.91
2023-04-18T10:04:29.191Z,0.60
2023-04-18T10:05:29.186Z,0.52
2023-04-18T10:06:29.120Z,0.53
2023-04-18T10:07:29.137Z,0.61
2023-04-18T10:08:29.178Z,0.67
2023-04-18T10:09:29.217Z,0.72
2023-04-18T10:10:29.222Z,0.51
2023-04-18T10:11:29.270Z,0.48
2023-04-18T10:12:29.308Z,0.46
2023-04-18T10:13:29.333Z,0.49
2023-04-18T10:14:29.360Z,0.43
2023-04-18T10:15:29.350Z,0.57
2023-04-18T10:16:29.475Z,0.79
2023-04-18T10:17:29.893Z,0.88
2023-04-18T10:18:29.367Z,0.78
2023-04-18T10:19:29.349Z,0.86
2023-04-18T10:20:29.333Z,0.78
2023-04-18T10:21:29.477Z,1.14
2023-04-18T10:22:29.321Z,0.99
2023-04-18T10:23:29.330Z,0.80
2023-04-18T10:24:29.344Z,0.85
2023-04-18T10:25:29.334Z,1.61
2023-04-18T10:26:29.396Z,1.39
2023-04-18T10:27:29.420Z,1.39
2023-04-18T10:28:29.435Z,1.29
2023-04-18T10:29:29.466Z,1.44
2023-04-18T10:30:29.517Z,1.47
2023-04-18T10:31:29.631Z,2.02
2023-04-18T10:32:29.635Z,1.08
2023-04-18T10:33:31.874Z,0.75
2023-04-18T10:34:29.646Z,1.09
2023-04-18T10:35:29.593Z,1.88
2023-04-18T10:36:29.626Z,3.56
2023-04-18T10:37:29.595Z,2.41
2023-04-18T10:38:29.613Z,1.62
2023-04-18T10:39:29.578Z,1.40
2023-04-18T10:40:29.574Z,2.49
2023-04-18T10:41:29.570Z,2.17
2023-04-18T10:42:29.574Z,3.96
2023-04-18T10:43:29.563Z,5.26
2023-04-18T10:44:29.553Z,6.77
2023-04-18T10:45:29.528Z,5.37
2023-04-18T10:46:32.525Z,6.77
2023-04-18T10:47:29.590Z,6.18
2023-04-18T10:48:29.639Z,6.89
2023-04-18T10:49:32.059Z,7.32
2023-04-18T10:50:29.492Z,6.87
2023-04-18T10:51:29.496Z,7.55
2023-04-18T10:52:29.511Z,10.25
2023-04-18T10:53:29.484Z,12.84
2023-04-18T10:54:29.484Z,17.64
2023-04-18T10:55:29.463Z,18.09
2023-04-18T10:56:29.492Z,26.95
2023-04-18T10:57:29.468Z,39.71
2023-04-18T10:58:29.459Z,33.49
2023-04-18T10:59:29.443Z,35.77
2023-04-18T11:00:29.454Z,38.61
2023-04-18T11:01:31.972Z,42.14
2023-04-18T11:02:29.438Z,36.04
2023-04-18T11:03:29.550Z,32.15
2023-04-18T11:04:29.487Z,26.74
2023-04-18T11:05:29.403Z,24.00
2023-04-18T11:06:29.423Z,24.55
2023-04-18T11:07:30.093Z,18.86
2023-04-18T11:08:29.381Z,20.81
2023-04-18T11:09:29.366Z,9.61
2023-04-18T11:10:29.466Z,6.79
2023-04-18T11:11:29.367Z,8.06
2023-04-18T11:12:29.493Z,7.54
2023-04-18T11:13:29.349Z,7.96
2023-04-18T11:14:29.397Z,11.68
2023-04-18T11:15:31.030Z,14.02
2023-04-18T11:16:29.542Z,16.04
2023-04-18T11:17:29.541Z,18.73
2023-04-18T11:18:29.326Z,20.03
2023-04-18T11:19:29.319Z,20.70
2023-04-18T11:20:29.347Z,25.54
2023-04-18T11:21:30.698Z,26.68
2023-04-18T11:22:29.523Z,26.91
2023-04-18T11:23:29.277Z,26.50
2023-04-18T11:24:29.288Z,27.34
2023-04-18T11:25:29.296Z,26.89
2023-04-18T11:26:29.279Z,25.99
2023-04-18T11:27:29.261Z,25.71
2023-04-18T11:28:29.245Z,25.98
2023-04-18T11:29:29.230Z,26.20
2023-04-18T11:30:29.224Z,25.81
2023-04-18T11:31:29.264Z,25.63
2023-04-18T11:32:29.465Z,25.59
2023-04-18T11:33:29.340Z,25.99
2023-04-18T11:34:29.308Z,24.75
2023-04-18T11:35:29.344Z,24.91
2023-04-18T11:36:29.485Z,24.06
2023-04-18T11:37:29.416Z,24.35
2023-04-18T11:38:29.453Z,23.55
2023-04-18T11:39:29.517Z,23.14
2023-04-18T11:40:29.516Z,23.23
2023-04-18T11:41:29.560Z,23.28
2023-04-18T11:42:29.611Z,22.32
2023-04-18T11:43:29.639Z,22.47
2023-04-18T11:44:29.650Z,22.07
2023-04-18T11:45:29.713Z,22.28
2023-04-18T11:46:29.914Z,20.76
2023-04-18T11:47:29.826Z,20.72
2023-04-18T11:48:29.844Z,20.50
2023-04-18T11:49:29.862Z,20.64
2023-04-18T11:50:29.904Z,19.70
2023-04-18T11:51:29.969Z,19.06
2023-04-18T11:52:29.970Z,18.53
2023-04-18T11:53:30.006Z,18.22
2023-04-18T11:54:30.033Z,18.14
2023-04-18T11:55:30.096Z,18.10
2023-04-18T11:56:30.117Z,18.51
2023-04-18T11:57:30.167Z,17.34
2023-04-18T11:58:30.178Z,17.38
2023-04-18T11:59:30.222Z,16.98
2023-04-18T12:00:30.250Z,16.57
2023-04-18T12:01:30.292Z,16.52
2023-04-18T12:02:30.444Z,16.65
2023-04-18T12:03:30.617Z,16.06
2023-04-18T12:04:30.564Z,15.92
2023-04-18T12:05:30.805Z,15.80
2023-04-18T12:06:30.592Z,16.39
2023-04-18T12:07:30.562Z,15.71
2023-04-18T12:08:30.627Z,15.53
2023-04-18T12:09:30.670Z,14.82
2023-04-18T12:10:30.725Z,14.94
2023-04-18T12:11:30.742Z,14.89
2023-04-18T12:12:30.764Z,14.76
2023-04-18T12:13:30.842Z,13.78
2023-04-18T12:14:30.868Z,13.43
2023-04-18T12:15:30.921Z,13.63
2023-04-18T12:16:31.012Z,13.66
2023-04-18T12:17:30.998Z,13.33
2023-04-18T12:18:31.017Z,12.79
2023-04-18T12:19:31.060Z,12.76
2023-04-18T12:20:31.124Z,13.00
2023-04-18T12:21:31.177Z,12.20
2023-04-18T12:22:31.529Z,12.47
2023-04-18T12:23:31.283Z,11.85
2023-04-18T12:24:31.364Z,11.57
2023-04-18T12:25:31.407Z,11.97
2023-04-18T12:26:31.456Z,11.54
2023-04-18T12:27:31.522Z,11.41
2023-04-18T12:28:31.634Z,10.96
2023-04-18T12:29:31.637Z,11.42
2023-04-18T12:30:31.708Z,10.60
2023-04-18T12:31:31.794Z,11.00
2023-04-18T12:32:31.841Z,10.63
2023-04-18T12:33:31.909Z,10.33
2023-04-18T12:34:31.899Z,10.11
2023-04-18T12:35:31.967Z,10.01
2023-04-18T12:36:31.997Z,9.72
2023-04-18T12:37:32.511Z,9.35
2023-04-18T12:38:32.102Z,8.77
2023-04-18T12:39:32.168Z,9.30
2023-04-18T12:40:32.210Z,8.80
2023-04-18T12:41:32.265Z,8.72
2023-04-18T12:42:32.312Z,7.81
2023-04-18T12:43:32.324Z,7.37
2023-04-18T12:44:32.344Z,6.94
2023-04-18T12:45:32.356Z,6.28
2023-04-18T12:46:32.414Z,6.76
2023-04-18T12:47:32.446Z,6.88
2023-04-18T12:48:32.437Z,6.81
2023-04-18T12:49:32.434Z,6.82
2023-04-18T12:50:32.446Z,6.75
2023-04-18T12:51:32.464Z,6.87
2023-04-18T12:52:32.484Z,6.48
2023-04-18T12:53:32.469Z,5.49
2023-04-18T12:54:32.498Z,5.48
2023-04-18T12:55:32.557Z,5.68
2023-04-18T12:56:32.611Z,5.38
2023-04-18T12:57:32.663Z,5.04
2023-04-18T12:58:32.723Z,5.28
2023-04-18T12:59:32.778Z,5.89
2023-04-18T13:00:32.917Z,5.79
2023-04-18T13:01:32.928Z,5.72
2023-04-18T13:02:33.020Z,5.19
2023-04-18T13:03:33.140Z,4.07
2023-04-18T13:04:33.256Z,4.09
2023-04-18T13:05:34.152Z,4.45
2023-04-18T13:06:33.173Z,4.42
2023-04-18T13:07:33.226Z,4.70
2023-04-18T13:08:33.266Z,5.08
2023-04-18T13:09:33.351Z,4.61
2023-04-18T13:10:33.346Z,3.48
2023-04-18T13:11:33.356Z,3.38
2023-04-18T13:12:33.368Z,3.45
2023-04-18T13:13:35.183Z,3.54
2023-04-18T13:14:33.408Z,3.39